Weather at Anduki Airport

Public forecast

Using degrees Celsius for public forecast. Weather courtesy of forecast.io.

Closest aviation weather report (METAR) to Anduki Airport

Closest report is Miri Airport, 30.1 nm (55.7 km) SW. Retrieved 2022/08/09 06:00 UTC (1 hour ago):

WBGR 090600Z 30006KT 220V350 9999 TS FEW015CB SCT016 31/27 Q1006

Closest aviation forecast (TAF) to Anduki Airport

Closest forecast is Miri Airport, 30.1 nm (55.7 km) SW. Retrieved 2022/08/09 06:00 UTC (1 hour ago):

TAF WBGR 090500Z 0906/1006 28005KT 9999 SCT016 TEMPO 0906/0910 4000 TSRA FEW015CB